Time;durP1;ratioP1;P1;durP2;ratioP2;P2;SDS_P1;SDS_P2;PMS_P1;PMS_P2;Temp;Humidity;BMP_temperature;BMP_pressure;BME280_temperature;BME280_humidity;BME280_pressure;Samples;Min_cycle;Max_cycle;Signal;HPM_P1;HPM_P2
2022/01/25 00:08:54;;;;;;;;;;;;;;;4.95;61.14;102300.72;5021832;28;6993;-71
2022/01/25 00:27:41;;;;;;;;;;;;;;;5.52;61.41;102292.78;5021887;28;6898;-70
2022/01/25 00:30:31;;;;;;;;;;;;;;;5.60;61.20;102284.25;5033746;28;6839;-70
2022/01/25 00:32:57;;;;;;;;;;;;;;;5.66;60.74;102277.22;5030808;28;6911;-70
2022/01/25 00:35:23;;;;;;;;;;;;;;;5.72;60.74;102283.66;5020278;28;6776;-70
2022/01/25 00:37:49;;;;;;;;;;;;;;;5.76;60.71;102281.56;5042752;28;6888;-70
2022/01/25 00:40:15;;;;;;;;;;;;;;;5.81;60.55;102279.47;5034805;28;6875;-70
2022/01/25 00:42:41;;;;;;;;;;;;;;;5.86;60.53;102288.44;5046756;28;6788;-70
2022/01/25 00:45:09;;;;;;;;;;;;;;;5.92;60.11;102281.41;5029618;28;7909;-70
2022/01/25 00:47:34;;;;;;;;;;;;;;;5.94;60.67;102290.06;5028506;28;6816;-70
2022/01/25 00:50:00;;;;;;;;;;;;;;;5.99;60.43;102295.63;5037837;28;6819;-70
2022/01/25 00:55:04;;;;;;;;;;;;;;;6.04;60.61;102291.00;5023390;28;7924;-71
2022/01/25 00:57:29;;;;;;;;;;;;;;;6.07;60.02;102294.75;5027962;28;7212;-71
2022/01/25 00:59:55;;;;;;;;;;;;;;;6.12;60.53;102300.28;5029721;28;6962;-71
2022/01/25 01:02:21;;;;;;;;;;;;;;;6.15;60.21;102300.56;5025259;28;7767;-71
2022/01/25 01:04:47;;;;;;;;;;;;;;;6.18;60.39;102300.88;5023573;28;7239;-71
2022/01/25 01:07:15;;;;;;;;;;;;;;;6.23;60.38;102298.78;5011994;28;7908;-71
2022/01/25 01:09:46;;;;;;;;;;;;;;;6.28;60.67;102304.28;5025278;28;6874;-70
2022/01/25 01:12:30;;;;;;;;;;;;;;;6.31;60.28;102302.06;5019530;28;7217;-71
2022/01/25 01:15:05;;;;;;;;;;;;;;;6.33;60.13;102304.00;5021194;28;6835;-71
2022/01/25 01:31:26;;;;;;;;;;;;;;;6.40;60.35;102297.84;5034226;28;7317;-71
2022/01/25 01:37:04;;;;;;;;;;;;;;;6.43;60.00;102302.34;5035941;28;7238;-71
2022/01/25 01:47:43;;;;;;;;;;;;;;;6.46;59.91;102313.69;5033809;28;6827;-71
2022/01/25 01:50:14;;;;;;;;;;;;;;;6.47;59.91;102318.06;5022660;28;6891;-70
2022/01/25 01:52:40;;;;;;;;;;;;;;;6.52;59.78;102318.50;5033506;28;6808;-70
2022/01/25 01:55:08;;;;;;;;;;;;;;;6.53;59.45;102316.09;5037445;28;6767;-71
2022/01/25 01:57:35;;;;;;;;;;;;;;;6.56;59.65;102322.22;5017523;28;7968;-70
2022/01/25 02:00:03;;;;;;;;;;;;;;;6.58;59.72;102318.19;5020085;28;6892;-71
2022/01/25 02:02:28;;;;;;;;;;;;;;;6.60;59.36;102321.78;5036361;28;6884;-71
2022/01/25 02:04:54;;;;;;;;;;;;;;;6.61;59.93;102321.00;4980090;28;6922;-71
2022/01/25 02:07:20;;;;;;;;;;;;;;;6.63;59.79;102314.41;5025452;28;6962;-71
2022/01/25 02:09:45;;;;;;;;;;;;;;;6.66;59.31;102309.59;5022353;28;7264;-71
2022/01/25 02:12:11;;;;;;;;;;;;;;;6.69;59.30;102312.44;5031950;28;7042;-71
2022/01/25 02:14:40;;;;;;;;;;;;;;;6.71;59.26;102310.94;5032698;28;6780;-71
2022/01/25 02:17:24;;;;;;;;;;;;;;;6.71;59.20;102318.59;5014210;28;6873;-71
2022/01/25 02:22:56;;;;;;;;;;;;;;;6.66;59.32;102296.84;5035924;28;6884;-71
2022/01/25 02:25:23;;;;;;;;;;;;;;;6.68;59.95;102295.38;5023480;28;6883;-71
2022/01/25 02:27:49;;;;;;;;;;;;;;;6.69;59.29;102289.50;5040262;28;6906;-71
2022/01/25 02:30:15;;;;;;;;;;;;;;;6.71;59.31;102289.63;5021303;28;7282;-71
2022/01/25 02:32:41;;;;;;;;;;;;;;;6.74;59.17;102288.28;5030114;28;6962;-71
2022/01/25 02:35:07;;;;;;;;;;;;;;;6.77;59.44;102285.13;5017855;28;6775;-71
2022/01/25 02:37:33;;;;;;;;;;;;;;;6.80;59.51;102287.94;5036498;28;6875;-71
2022/01/25 02:39:59;;;;;;;;;;;;;;;6.81;59.50;102288.09;5021557;28;7381;-70
2022/01/25 02:42:25;;;;;;;;;;;;;;;6.84;59.64;102281.50;5022784;28;7446;-70
2022/01/25 02:44:51;;;;;;;;;;;;;;;6.87;59.23;102276.72;5032091;28;7347;-70
2022/01/25 02:50:04;;;;;;;;;;;;;;;6.91;59.57;102288.97;5034695;28;7206;-70
2022/01/25 02:52:32;;;;;;;;;;;;;;;6.94;58.93;102297.81;5024335;28;8031;-70
2022/01/25 02:54:58;;;;;;;;;;;;;;;6.95;59.37;102301.22;5006568;28;6852;-70
2022/01/25 02:57:24;;;;;;;;;;;;;;;6.99;59.57;102305.88;5059763;28;6823;-70
2022/01/25 02:59:50;;;;;;;;;;;;;;;7.01;59.46;102296.72;5014452;28;7309;-70
2022/01/25 03:02:16;;;;;;;;;;;;;;;7.05;58.56;102298.81;5027828;28;6999;-70
2022/01/25 03:04:42;;;;;;;;;;;;;;;7.07;58.71;102286.19;5024309;28;6835;-70
2022/01/25 03:07:08;;;;;;;;;;;;;;;7.08;58.45;102291.44;5045709;28;6776;-70
2022/01/25 03:09:36;;;;;;;;;;;;;;;7.09;59.23;102283.03;5044807;28;7357;-70
2022/01/25 03:12:06;;;;;;;;;;;;;;;7.09;59.10;102290.69;5059792;28;7831;-70
2022/01/25 03:14:34;;;;;;;;;;;;;;;7.08;58.47;102283.78;5029878;28;6888;-70
2022/01/25 03:24:46;;;;;;;;;;;;;;;7.07;58.50;102282.00;5028934;28;6995;-70
2022/01/25 03:27:11;;;;;;;;;;;;;;;7.07;59.40;102282.00;5042787;28;7240;-70
2022/01/25 03:29:37;;;;;;;;;;;;;;;7.07;58.42;102283.63;5007090;28;6776;-70
2022/01/25 03:32:06;;;;;;;;;;;;;;;7.06;59.21;102274.19;5024609;28;7302;-70
2022/01/25 03:34:31;;;;;;;;;;;;;;;7.06;58.76;102275.09;5024352;28;7760;-70
2022/01/25 03:36:57;;;;;;;;;;;;;;;7.04;58.62;102271.50;5047556;28;7052;-71
2022/01/25 03:39:24;;;;;;;;;;;;;;;7.01;58.47;102271.22;5043857;28;7030;-71
2022/01/25 03:41:49;;;;;;;;;;;;;;;6.99;58.66;102261.63;5038621;28;7379;-71
2022/01/25 03:44:17;;;;;;;;;;;;;;;6.98;59.27;102270.94;5030591;28;6833;-71
2022/01/25 03:52:00;;;;;;;;;;;;;;;6.95;58.64;102256.25;5024426;28;6827;-71
2022/01/25 03:54:26;;;;;;;;;;;;;;;6.95;58.88;102256.25;5041632;28;7298;-71
2022/01/25 03:56:51;;;;;;;;;;;;;;;6.96;58.88;102254.63;5028459;28;7017;-70
2022/01/25 03:59:18;;;;;;;;;;;;;;;6.95;58.45;102252.78;5062734;28;7104;-70
2022/01/25 04:01:44;;;;;;;;;;;;;;;6.95;58.73;102237.50;5019872;28;7831;-70
2022/01/25 04:04:14;;;;;;;;;;;;;;;6.93;59.05;102254.31;5018196;28;6788;-70
2022/01/25 04:06:43;;;;;;;;;;;;;;;6.92;58.52;102255.97;5037582;28;7031;-70
2022/01/25 04:09:09;;;;;;;;;;;;;;;6.92;58.72;102250.88;5039953;28;7235;-70
2022/01/25 04:11:36;;;;;;;;;;;;;;;6.90;58.45;102257.47;5022908;28;6832;-70
2022/01/25 04:14:04;;;;;;;;;;;;;;;6.88;59.03;102268.31;5012958;28;7290;-70
2022/01/25 04:16:36;;;;;;;;;;;;;;;6.88;58.62;102263.19;4999057;28;7154;-70
2022/01/25 04:26:47;;;;;;;;;;;;;;;6.87;59.17;102253.75;5023382;28;7403;-70
2022/01/25 04:29:12;;;;;;;;;;;;;;;6.90;58.98;102251.50;5016291;28;6957;-70
2022/01/25 04:31:38;;;;;;;;;;;;;;;6.90;58.66;102257.47;5033599;28;7254;-70
2022/01/25 04:34:36;;;;;;;;;;;;;;;6.90;59.30;102252.38;5060724;28;8030;-70
2022/01/25 04:51:12;;;;;;;;;;;;;;;6.95;58.44;102237.50;5033210;28;7545;-70
2022/01/25 04:56:15;;;;;;;;;;;;;;;6.96;58.33;102231.66;5026246;28;6812;-70
2022/01/25 04:58:57;;;;;;;;;;;;;;;6.97;58.48;102232.56;5036608;28;7078;-70
2022/01/25 05:01:22;;;;;;;;;;;;;;;6.97;58.52;102228.38;5041193;28;6979;-70
2022/01/25 05:04:13;;;;;;;;;;;;;;;6.97;58.54;102223.25;5029507;28;7287;-70
2022/01/25 05:06:34;;;;;;;;;;;;;;;6.97;59.16;102230.91;5030364;28;7196;-70
2022/01/25 05:09:11;;;;;;;;;;;;;;;6.98;59.01;102226.69;5035771;28;8289;-70
2022/01/25 05:11:44;;;;;;;;;;;;;;;7.00;58.40;102230.28;5024296;28;7298;-70
2022/01/25 05:14:55;;;;;;;;;;;;;;;7.01;58.91;102232.09;5044286;28;7662;-70
2022/01/25 05:17:05;;;;;;;;;;;;;;;7.00;58.88;102233.72;5018376;28;7463;-70
2022/01/25 05:22:27;;;;;;;;;;;;;;;7.00;59.05;102233.72;5024749;28;10858;-70
2022/01/25 05:24:55;;;;;;;;;;;;;;;6.99;58.27;102231.94;5026442;28;6913;-70
2022/01/25 05:27:27;;;;;;;;;;;;;;;7.01;58.30;102227.88;5041180;28;7209;-70
2022/01/25 05:29:53;;;;;;;;;;;;;;;7.02;58.68;102228.78;5035780;28;7147;-70
2022/01/25 05:32:19;;;;;;;;;;;;;;;7.04;58.35;102233.25;5025225;28;6824;-70
2022/01/25 05:34:45;;;;;;;;;;;;;;;7.04;58.47;102238.34;5023420;28;6798;-70
2022/01/25 05:37:11;;;;;;;;;;;;;;;7.02;58.92;102232.22;5027068;28;6955;-70
2022/01/25 05:39:38;;;;;;;;;;;;;;;7.03;58.82;102238.22;5027685;28;8257;-70
2022/01/25 05:47:19;;;;;;;;;;;;;;;6.98;58.28;102232.69;5038437;28;6803;-70
2022/01/25 05:49:45;;;;;;;;;;;;;;;7.02;59.33;102232.22;5003361;28;6838;-70
2022/01/25 05:52:12;;;;;;;;;;;;;;;7.03;58.94;102228.91;5024151;28;6795;-70
2022/01/25 05:54:39;;;;;;;;;;;;;;;7.04;58.76;102233.25;5035534;28;6799;-70
2022/01/25 05:57:07;;;;;;;;;;;;;;;7.07;58.64;102235.19;5025086;28;7037;-70
2022/01/25 05:59:33;;;;;;;;;;;;;;;7.07;59.04;102231.00;5016293;28;6822;-70
2022/01/25 06:01:59;;;;;;;;;;;;;;;7.08;58.10;102245.53;5038483;28;8014;-70
2022/01/25 06:04:25;;;;;;;;;;;;;;;7.07;58.24;102236.09;5039221;28;6783;-70
2022/01/25 06:06:51;;;;;;;;;;;;;;;7.06;58.27;102228.28;5037527;28;6901;-70
2022/01/25 06:09:17;;;;;;;;;;;;;;;7.04;58.65;102233.25;5023458;28;7058;-70
2022/01/25 06:15:25;;;;;;;;;;;;;;;7.00;58.09;102231.19;5037122;28;6839;-70
2022/01/25 06:17:51;;;;;;;;;;;;;;;7.02;58.22;102231.34;5039833;28;6792;-70
2022/01/25 06:20:17;;;;;;;;;;;;;;;7.02;58.08;102238.97;5040152;28;6954;-70
2022/01/25 06:22:43;;;;;;;;;;;;;;;7.04;58.64;102240.91;5030001;28;6795;-70
2022/01/25 06:25:11;;;;;;;;;;;;;;;7.04;58.54;102232.38;5030726;28;6861;-70
2022/01/25 06:27:42;;;;;;;;;;;;;;;7.04;58.17;102240.00;5009236;28;7460;-70
2022/01/25 06:30:14;;;;;;;;;;;;;;;7.02;58.02;102237.31;5030695;28;7399;-70
2022/01/25 06:32:39;;;;;;;;;;;;;;;7.02;58.56;102238.97;5032747;28;7127;-70
2022/01/25 06:35:06;;;;;;;;;;;;;;;7.01;58.39;102240.63;5026844;28;6966;-70
2022/01/25 06:37:34;;;;;;;;;;;;;;;7.02;58.90;102229.66;5018545;28;6891;-70
2022/01/25 06:40:00;;;;;;;;;;;;;;;7.05;58.84;102229.97;5035384;28;6851;-70
2022/01/25 06:42:31;;;;;;;;;;;;;;;7.06;58.08;102236.84;5026521;28;6796;-70
2022/01/25 06:45:02;;;;;;;;;;;;;;;7.06;58.37;102236.84;5058693;28;6843;-70
2022/01/25 06:47:28;;;;;;;;;;;;;;;7.04;57.97;102232.38;5019941;28;6969;-70
2022/01/25 06:49:54;;;;;;;;;;;;;;;7.04;58.46;102233.25;5009016;28;7035;-70
2022/01/25 06:52:20;;;;;;;;;;;;;;;7.02;58.56;102237.31;5020609;28;6800;-71
2022/01/25 06:54:45;;;;;;;;;;;;;;;7.03;58.77;102240.78;5031544;28;7201;-70
2022/01/25 06:57:12;;;;;;;;;;;;;;;7.03;58.50;102241.66;5010571;28;6852;-70
2022/01/25 06:59:38;;;;;;;;;;;;;;;7.04;58.39;102243.44;5006966;28;6903;-70
2022/01/25 07:02:05;;;;;;;;;;;;;;;7.08;58.91;102247.19;5015519;28;7278;-70
2022/01/25 07:04:30;;;;;;;;;;;;;;;7.09;58.59;102244.78;5012976;28;6807;-70
2022/01/25 07:06:56;;;;;;;;;;;;;;;7.09;57.76;102248.97;5018621;28;7088;-70
2022/01/25 07:09:22;;;;;;;;;;;;;;;7.08;58.14;102259.91;5028275;28;6783;-71
2022/01/25 07:11:48;;;;;;;;;;;;;;;7.05;58.43;102259.66;5021837;28;6871;-70
2022/01/25 07:14:13;;;;;;;;;;;;;;;7.05;58.62;102262.19;5028388;28;7188;-70
2022/01/25 07:16:39;;;;;;;;;;;;;;;7.04;58.14;102261.28;5023430;28;7266;-70
2022/01/25 07:19:05;;;;;;;;;;;;;;;7.03;58.75;102249.31;5028467;28;7039;-70
2022/01/25 07:21:31;;;;;;;;;;;;;;;7.05;58.12;102268.22;5036286;28;6795;-70
2022/01/25 07:23:56;;;;;;;;;;;;;;;7.05;57.73;102255.47;5042481;28;6868;-70
2022/01/25 07:26:22;;;;;;;;;;;;;;;7.06;58.57;102258.91;5040878;28;6998;-70
2022/01/25 07:28:48;;;;;;;;;;;;;;;7.04;58.39;102252.75;5029364;28;6966;-70
2022/01/25 07:31:14;;;;;;;;;;;;;;;7.05;58.34;102244.34;5031046;28;6784;-70
2022/01/25 07:33:39;;;;;;;;;;;;;;;7.04;57.96;102250.22;5024116;28;6779;-70
2022/01/25 07:36:05;;;;;;;;;;;;;;;7.03;58.54;102250.97;5041569;28;6864;-70
2022/01/25 07:38:31;;;;;;;;;;;;;;;7.01;57.99;102255.03;5020740;28;6788;-70
2022/01/25 07:40:57;;;;;;;;;;;;;;;6.99;58.25;102247.25;5012756;28;6800;-70
2022/01/25 07:43:23;;;;;;;;;;;;;;;7.00;58.21;102246.47;5010090;28;6996;-70
2022/01/25 07:45:52;;;;;;;;;;;;;;;7.00;58.50;102246.47;5005914;28;7007;-70
2022/01/25 07:48:19;;;;;;;;;;;;;;;7.01;58.33;102250.81;5026355;28;6831;-70
2022/01/25 07:50:44;;;;;;;;;;;;;;;7.01;58.83;102235.53;5025008;28;8034;-70
2022/01/25 07:53:10;;;;;;;;;;;;;;;7.03;58.99;102240.78;5028099;28;6871;-70
2022/01/25 07:55:36;;;;;;;;;;;;;;;7.05;58.91;102241.81;5008288;28;7884;-70
2022/01/25 07:58:03;;;;;;;;;;;;;;;7.06;58.36;102234.31;5025450;28;6788;-70
2022/01/25 08:00:29;;;;;;;;;;;;;;;7.08;58.79;102236.97;5016983;28;6816;-70
2022/01/25 08:02:55;;;;;;;;;;;;;;;7.08;58.79;102235.34;5039208;28;7057;-70
2022/01/25 08:05:24;;;;;;;;;;;;;;;7.09;58.58;102241.31;5028147;28;7204;-70
2022/01/25 08:07:50;;;;;;;;;;;;;;;7.12;58.23;102253.47;5038597;28;7065;-70
2022/01/25 08:10:16;;;;;;;;;;;;;;;7.13;58.25;102245.97;5023216;28;7018;-70
2022/01/25 08:12:42;;;;;;;;;;;;;;;7.14;59.02;102257.03;5007213;28;7506;-70
2022/01/25 08:15:09;;;;;;;;;;;;;;;7.15;58.49;102251.22;5023285;28;6784;-70
2022/01/25 08:17:36;;;;;;;;;;;;;;;7.15;58.51;102253.75;5024891;28;7018;-70
2022/01/25 08:20:03;;;;;;;;;;;;;;;7.15;58.20;102256.31;5037991;28;8012;-70
2022/01/25 08:22:29;;;;;;;;;;;;;;;7.14;58.98;102255.41;5037481;28;6787;-70
2022/01/25 08:24:55;;;;;;;;;;;;;;;7.16;58.73;102253.00;5000906;28;7951;-70
2022/01/25 08:27:23;;;;;;;;;;;;;;;7.16;59.10;102250.44;5018933;28;7231;-70
2022/01/25 08:29:54;;;;;;;;;;;;;;;7.18;58.54;102256.59;5002668;28;7263;-70
2022/01/25 08:32:20;;;;;;;;;;;;;;;7.18;58.88;102254.03;5020467;28;6819;-70
2022/01/25 08:34:47;;;;;;;;;;;;;;;7.21;58.50;102254.31;5015402;28;7312;-70
2022/01/25 08:37:14;;;;;;;;;;;;;;;7.28;58.57;102258.31;5046955;28;6827;-70
2022/01/25 08:39:41;;;;;;;;;;;;;;;7.34;58.79;102262.34;5019279;28;6815;-70
2022/01/25 08:42:08;;;;;;;;;;;;;;;7.38;58.67;102249.84;5023034;28;6783;-70
2022/01/25 08:44:36;;;;;;;;;;;;;;;7.42;58.51;102262.09;5013908;28;6899;-70
2022/01/25 08:47:03;;;;;;;;;;;;;;;7.44;59.03;102263.16;5020310;28;7199;-70
2022/01/25 08:49:30;;;;;;;;;;;;;;;7.45;58.77;102262.41;5042397;28;7143;-70
2022/01/25 08:51:57;;;;;;;;;;;;;;;7.48;58.09;102260.13;5021070;28;6907;-70
2022/01/25 08:54:24;;;;;;;;;;;;;;;7.53;59.29;102258.00;5037159;28;7034;-70
2022/01/25 08:56:49;;;;;;;;;;;;;;;7.59;58.74;102259.44;5037518;28;6899;-70
2022/01/25 08:59:15;;;;;;;;;;;;;;;7.63;58.46;102270.81;5038011;28;6789;-70
2022/01/25 09:01:41;;;;;;;;;;;;;;;7.69;57.84;102267.91;5036936;28;7117;-70
2022/01/25 09:04:07;;;;;;;;;;;;;;;7.71;57.79;102267.31;5038872;28;6795;-70
2022/01/25 09:06:34;;;;;;;;;;;;;;;7.74;58.75;102269.25;5029366;28;6981;-70
2022/01/25 09:09:08;;;;;;;;;;;;;;;7.74;58.70;102264.13;5023904;28;8059;-70
2022/01/25 09:11:37;;;;;;;;;;;;;;;7.77;57.95;102277.16;5031455;28;7739;-70
2022/01/25 09:14:03;;;;;;;;;;;;;;;7.79;58.16;102267.97;5030182;28;6820;-70
2022/01/25 09:16:29;;;;;;;;;;;;;;;7.81;57.86;102279.22;5026271;28;7165;-70
2022/01/25 09:18:54;;;;;;;;;;;;;;;7.83;58.78;102275.16;5007227;28;7151;-70
2022/01/25 09:21:20;;;;;;;;;;;;;;;7.89;58.36;102279.91;5038823;28;6783;-70
2022/01/25 09:23:46;;;;;;;;;;;;;;;7.91;57.43;102279.28;5032565;28;6819;-70
2022/01/25 09:26:12;;;;;;;;;;;;;;;7.96;57.98;102283.91;5005297;28;6941;-70
2022/01/25 09:28:37;;;;;;;;;;;;;;;7.99;57.56;102286.72;5038301;28;6941;-70
2022/01/25 09:31:03;;;;;;;;;;;;;;;8.02;57.98;102289.56;5012574;28;6791;-71
2022/01/25 09:33:30;;;;;;;;;;;;;;;8.06;57.75;102289.97;5020273;28;6781;-70
2022/01/25 09:35:56;;;;;;;;;;;;;;;8.08;57.85;102289.22;5026743;28;7013;-71
2022/01/25 09:38:24;;;;;;;;;;;;;;;8.11;57.27;102294.59;5020411;28;6982;-70
2022/01/25 09:40:51;;;;;;;;;;;;;;;8.11;57.38;102290.38;5021057;28;7003;-70
2022/01/25 09:43:19;;;;;;;;;;;;;;;8.15;57.28;102288.97;5006504;28;7014;-70
2022/01/25 09:45:46;;;;;;;;;;;;;;;8.16;57.31;102295.88;5024532;28;6831;-70
2022/01/25 09:48:17;;;;;;;;;;;;;;;8.18;57.18;102294.38;5014437;28;6823;-70
2022/01/25 09:50:44;;;;;;;;;;;;;;;8.17;58.06;102298.56;5018285;28;6812;-70
2022/01/25 09:53:10;;;;;;;;;;;;;;;8.18;57.13;102300.34;5054988;28;7366;-70
2022/01/25 09:55:41;;;;;;;;;;;;;;;8.20;57.73;102301.38;5025075;28;7054;-70
2022/01/25 09:58:08;;;;;;;;;;;;;;;8.24;56.79;102301.69;5005590;28;7279;-70
2022/01/25 10:00:37;;;;;;;;;;;;;;;8.27;57.38;102314.72;5021059;28;7212;-70
2022/01/25 10:03:16;;;;;;;;;;;;;;;8.28;57.75;102301.16;5037546;28;7301;-70
2022/01/25 10:05:49;;;;;;;;;;;;;;;8.30;56.65;102310.78;5025225;28;7920;-70
2022/01/25 10:08:26;;;;;;;;;;;;;;;8.33;57.45;102305.03;5025446;28;7853;-70
2022/01/25 10:10:58;;;;;;;;;;;;;;;8.34;57.67;102305.16;5018573;28;6820;-70
2022/01/25 10:13:34;;;;;;;;;;;;;;;8.40;57.42;102312.50;5019550;28;6971;-70
2022/01/25 10:16:15;;;;;;;;;;;;;;;8.44;57.35;102309.44;5036784;28;7196;-70
2022/01/25 10:18:51;;;;;;;;;;;;;;;8.48;57.11;102310.59;5019443;28;6828;-70
2022/01/25 10:21:38;;;;;;;;;;;;;;;8.52;57.12;102311.78;5021872;28;7235;-70
2022/01/25 10:24:07;;;;;;;;;;;;;;;8.56;56.99;102308.72;5033503;28;6892;-70
2022/01/25 10:26:47;;;;;;;;;;;;;;;8.55;57.08;102304.38;5018234;28;6804;-70
2022/01/25 10:29:40;;;;;;;;;;;;;;;8.59;57.44;102311.53;5034345;28;7248;-70
2022/01/25 10:32:14;;;;;;;;;;;;;;;8.59;56.45;102311.53;4995593;28;7044;-70
2022/01/25 10:34:46;;;;;;;;;;;;;;;8.60;56.42;102303.13;5030314;28;6978;-70
2022/01/25 10:37:23;;;;;;;;;;;;;;;8.63;56.85;102305.94;5047610;28;7164;-71
2022/01/25 10:39:52;;;;;;;;;;;;;;;8.65;56.71;102301.84;5011733;28;7144;-70
2022/01/25 10:42:31;;;;;;;;;;;;;;;8.66;55.95;102302.78;5027176;28;7177;-70
2022/01/25 10:45:06;;;;;;;;;;;;;;;8.65;56.71;102304.41;5025114;28;6804;-70
2022/01/25 10:47:51;;;;;;;;;;;;;;;8.66;56.08;102300.22;5028460;28;7186;-70
2022/01/25 10:50:39;;;;;;;;;;;;;;;8.68;56.75;102306.34;5030128;28;7023;-70
2022/01/25 10:53:16;;;;;;;;;;;;;;;8.71;56.51;102307.50;5043823;28;6823;-70
2022/01/25 10:55:49;;;;;;;;;;;;;;;8.74;56.17;102300.09;5015560;28;7857;-70
2022/01/25 10:58:16;;;;;;;;;;;;;;;8.78;56.40;102293.59;5034835;28;6804;-70
2022/01/25 11:00:51;;;;;;;;;;;;;;;8.83;56.14;102293.97;5022089;28;7027;-70
2022/01/25 11:03:27;;;;;;;;;;;;;;;8.87;57.34;102296.94;5039785;28;6899;-70
2022/01/25 11:05:53;;;;;;;;;;;;;;;8.88;56.16;102292.69;5030322;28;7344;-70
2022/01/25 11:08:25;;;;;;;;;;;;;;;8.91;56.76;102289.50;5012716;28;7261;-70
2022/01/25 11:10:57;;;;;;;;;;;;;;;8.93;56.20;102290.53;5062392;28;6811;-70
2022/01/25 11:16:04;;;;;;;;;;;;;;;8.96;55.82;102291.69;5062034;28;7141;-70
2022/01/25 11:18:33;;;;;;;;;;;;;;;8.97;56.62;102285.81;5003691;28;7100;-70
2022/01/25 11:21:02;;;;;;;;;;;;;;;9.01;57.35;102290.44;5044349;28;6811;-70
2022/01/25 11:23:33;;;;;;;;;;;;;;;9.07;57.30;102281.47;5026564;28;6856;-70
2022/01/25 11:26:02;;;;;;;;;;;;;;;9.12;56.34;102290.44;5028591;28;7254;-70
2022/01/25 11:28:31;;;;;;;;;;;;;;;9.15;55.69;102288.13;5024612;28;6799;-70
2022/01/25 11:31:03;;;;;;;;;;;;;;;9.16;56.61;102285.72;5020784;28;7149;-70
2022/01/25 11:33:32;;;;;;;;;;;;;;;9.13;56.14;102284.56;5027474;28;7533;-70
2022/01/25 11:35:59;;;;;;;;;;;;;;;9.07;55.00;102284.94;5027397;28;6823;-70
2022/01/25 11:38:45;;;;;;;;;;;;;;;8.98;55.42;102285.06;5024799;28;7572;-70
2022/01/25 11:41:15;;;;;;;;;;;;;;;8.94;56.66;102283.00;5028346;28;7148;-70
2022/01/25 11:43:44;;;;;;;;;;;;;;;8.93;55.65;102276.09;5006067;28;7510;-70
2022/01/25 11:46:10;;;;;;;;;;;;;;;8.91;56.02;102277.63;5026626;28;6911;-70
2022/01/25 11:48:43;;;;;;;;;;;;;;;8.89;55.76;102280.06;5020504;28;6811;-70
2022/01/25 11:51:17;;;;;;;;;;;;;;;8.89;56.89;102279.16;5017745;28;6887;-70
2022/01/25 11:53:48;;;;;;;;;;;;;;;8.89;56.79;102282.59;5029677;28;7153;-70
2022/01/25 11:56:15;;;;;;;;;;;;;;;8.87;56.80;102280.69;5028149;28;7904;-70
2022/01/25 11:58:51;;;;;;;;;;;;;;;8.85;56.29;102277.09;5022619;28;8513;-70
2022/01/25 12:01:22;;;;;;;;;;;;;;;8.87;55.63;102280.69;5041305;28;7458;-70
2022/01/25 12:04:11;;;;;;;;;;;;;;;8.84;56.06;102276.22;5038439;28;6962;-70
2022/01/25 12:06:49;;;;;;;;;;;;;;;8.78;56.05;102277.34;5031229;28;7328;-70
2022/01/25 12:09:42;;;;;;;;;;;;;;;8.73;56.84;102279.50;5060198;28;6820;-70
2022/01/25 12:12:14;;;;;;;;;;;;;;;8.68;55.62;102279.09;5030890;28;7265;-70
2022/01/25 12:14:43;;;;;;;;;;;;;;;8.67;56.90;102269.66;5041897;28;9018;-70
2022/01/25 12:17:20;;;;;;;;;;;;;;;8.68;55.91;102276.53;5037227;28;6915;-70
2022/01/25 12:19:51;;;;;;;;;;;;;;;8.69;57.16;102275.81;5024864;28;6966;-70
2022/01/25 12:22:38;;;;;;;;;;;;;;;8.72;57.14;102275.16;5027631;28;7400;-70
2022/01/25 12:25:34;;;;;;;;;;;;;;;8.74;56.74;102274.53;5039066;28;6937;-70
2022/01/25 12:28:09;;;;;;;;;;;;;;;8.79;56.64;102282.59;5025804;28;6904;-70
2022/01/25 12:30:44;;;;;;;;;;;;;;;8.83;56.53;102278.63;5040239;28;6831;-70
2022/01/25 12:33:25;;;;;;;;;;;;;;;8.89;57.02;102279.16;4993698;28;7316;-70
2022/01/25 12:35:59;;;;;;;;;;;;;;;8.93;56.31;102276.09;5019404;28;6820;-70
2022/01/25 12:38:44;;;;;;;;;;;;;;;8.93;55.56;102276.09;5036956;28;8341;-70
2022/01/25 12:41:31;;;;;;;;;;;;;;;8.93;55.99;102264.94;5035451;28;6823;-70
2022/01/25 12:44:05;;;;;;;;;;;;;;;8.95;56.73;102266.88;5060864;28;7335;-70
2022/01/25 12:46:40;;;;;;;;;;;;;;;8.94;56.23;102265.09;5031326;28;6827;-69
2022/01/25 12:49:15;;;;;;;;;;;;;;;8.90;55.58;102270.72;5020594;28;6900;-70
2022/01/25 12:51:44;;;;;;;;;;;;;;;8.86;55.15;102268.66;5033400;28;7242;-70
2022/01/25 12:54:14;;;;;;;;;;;;;;;8.82;55.49;102264.06;5027767;28;7236;-70
2022/01/25 12:56:48;;;;;;;;;;;;;;;8.76;55.47;102261.88;5035041;28;6819;-70
2022/01/25 12:59:22;;;;;;;;;;;;;;;8.73;55.59;102257.41;5048087;28;6808;-70
2022/01/25 13:01:50;;;;;;;;;;;;;;;8.73;55.75;102253.94;5030686;28;10846;-70
2022/01/25 13:04:16;;;;;;;;;;;;;;;8.71;56.12;102253.81;5017460;28;8243;-70
2022/01/25 13:06:48;;;;;;;;;;;;;;;8.66;56.30;102256.75;5037249;28;7426;-70
2022/01/25 13:09:32;;;;;;;;;;;;;;;8.60;55.38;102255.44;5023927;28;7020;-70
2022/01/25 13:17:17;;;;;;;;;;;;;;;8.52;56.40;102245.34;5031755;28;7192;-70
2022/01/25 13:19:47;;;;;;;;;;;;;;;8.51;57.01;102238.44;5037455;28;6815;-70
2022/01/25 13:22:23;;;;;;;;;;;;;;;8.51;55.78;102241.00;5043430;28;6812;-70
2022/01/25 13:27:22;;;;;;;;;;;;;;;8.63;57.22;102244.59;5026480;28;7198;-70
2022/01/25 13:32:44;;;;;;;;;;;;;;;8.68;56.34;102235.66;5030711;28;8046;-70
2022/01/25 13:35:27;;;;;;;;;;;;;;;8.70;56.32;102236.69;5063179;28;6860;-70
2022/01/25 13:38:23;;;;;;;;;;;;;;;8.75;57.26;102231.97;5039657;28;6896;-70
2022/01/25 13:46:27;;;;;;;;;;;;;;;8.80;55.30;102219.56;5034962;28;6979;-70
2022/01/25 13:48:57;;;;;;;;;;;;;;;8.82;55.33;102211.25;5037411;28;6831;-70
2022/01/25 13:51:30;;;;;;;;;;;;;;;8.85;56.37;102215.72;5040101;28;7217;-70
2022/01/25 13:54:00;;;;;;;;;;;;;;;8.88;55.86;102208.31;5029092;28;6816;-70
2022/01/25 13:56:34;;;;;;;;;;;;;;;8.90;55.86;102206.81;5036942;28;6807;-70
2022/01/25 13:59:03;;;;;;;;;;;;;;;8.95;56.32;102204.63;5038730;28;7102;-70
2022/01/25 14:01:32;;;;;;;;;;;;;;;8.98;56.11;102208.34;5026742;28;8000;-70
2022/01/25 14:04:07;;;;;;;;;;;;;;;9.01;54.89;102207.69;5025146;28;6982;-70
2022/01/25 14:06:41;;;;;;;;;;;;;;;9.05;55.23;102208.84;5038765;28;7525;-70
2022/01/25 14:09:17;;;;;;;;;;;;;;;9.09;55.19;102208.34;5021518;28;9961;-70
2022/01/25 14:23:21;;;;;;;;;;;;;;;9.08;55.01;102203.97;5025200;28;7212;-70
2022/01/25 14:25:49;;;;;;;;;;;;;;;9.07;55.09;102203.09;5028987;28;6843;-70
2022/01/25 14:28:25;;;;;;;;;;;;;;;9.06;54.45;102197.81;5023912;28;6978;-70
2022/01/25 14:30:54;;;;;;;;;;;;;;;9.05;55.83;102198.59;5018118;28;7018;-70
2022/01/25 14:33:25;;;;;;;;;;;;;;;9.08;55.20;102196.28;5034543;28;6891;-70
2022/01/25 14:36:04;;;;;;;;;;;;;;;9.10;54.73;102187.09;5022615;28;7315;-70
2022/01/25 14:38:35;;;;;;;;;;;;;;;9.12;55.41;102188.13;5052867;28;7094;-70
2022/01/25 14:41:09;;;;;;;;;;;;;;;9.11;54.35;102186.31;5018688;28;7943;-70
2022/01/25 14:43:39;;;;;;;;;;;;;;;9.10;55.18;102187.09;5034181;28;7050;-70
2022/01/25 14:46:10;;;;;;;;;;;;;;;9.09;55.46;102195.53;5012138;28;7259;-70
2022/01/25 14:48:39;;;;;;;;;;;;;;;9.09;54.83;102186.19;5011030;28;6812;-70
2022/01/25 14:51:11;;;;;;;;;;;;;;;9.07;55.02;102186.81;5007670;28;6976;-70
2022/01/25 14:53:40;;;;;;;;;;;;;;;9.07;54.57;102194.50;5038116;28;6819;-70
2022/01/25 14:56:07;;;;;;;;;;;;;;;9.05;54.90;102184.16;5020101;28;6800;-70
2022/01/25 15:01:19;;;;;;;;;;;;;;;9.01;54.42;102188.13;5027582;28;7913;-70
2022/01/25 15:03:46;;;;;;;;;;;;;;;8.99;54.94;102184.56;5029573;28;6800;-70
2022/01/25 15:06:15;;;;;;;;;;;;;;;8.94;54.86;102183.25;5018101;28;7044;-70
2022/01/25 15:08:53;;;;;;;;;;;;;;;8.86;54.89;102186.84;5030164;28;7027;-70
2022/01/25 15:11:23;;;;;;;;;;;;;;;8.78;54.87;102192.97;5026559;28;7016;-70
2022/01/25 15:13:57;;;;;;;;;;;;;;;8.71;55.62;102182.25;5034584;28;8204;-70
2022/01/25 15:16:23;;;;;;;;;;;;;;;8.68;54.83;102192.19;5015948;28;6824;-70
2022/01/25 15:18:49;;;;;;;;;;;;;;;8.66;55.11;102186.06;5018061;28;6788;-70
2022/01/25 15:21:16;;;;;;;;;;;;;;;8.66;55.11;102182.63;5030121;28;6817;-70
2022/01/25 15:23:46;;;;;;;;;;;;;;;8.65;55.42;102179.16;5034589;28;6864;-70
2022/01/25 15:26:16;;;;;;;;;;;;;;;8.64;55.04;102179.94;5013118;28;6816;-70
2022/01/25 15:28:44;;;;;;;;;;;;;;;8.63;55.29;102179.78;5032511;28;7343;-70
2022/01/25 15:31:18;;;;;;;;;;;;;;;8.63;54.74;102190.00;5065361;28;6831;-70